Time;durP1;ratioP1;P1;durP2;ratioP2;P2;SDS_P1;SDS_P2;PMS_P1;PMS_P2;Temp;Humidity;BMP_temperature;BMP_pressure;BME280_temperature;BME280_humidity;BME280_pressure;Samples;Min_cycle;Max_cycle;Signal;HPM_P1;HPM_P2
2023/09/12 04:22:33;;;;;;;11.38;8.40;;;;;;;17.28;100.00;99743.41;5109630;27;20739;-67
2023/09/12 04:24:59;;;;;;;11.60;8.15;;;;;;;17.37;100.00;99747.38;5108504;28;20032;-67
2023/09/12 04:27:24;;;;;;;11.90;8.50;;;;;;;17.40;100.00;99744.22;5108315;28;20085;-67
2023/09/12 04:29:50;;;;;;;12.63;8.80;;;;;;;17.42;100.00;99735.94;5107854;28;20031;-67
2023/09/12 04:32:22;;;;;;;12.80;8.73;;;;;;;17.41;100.00;99732.44;5108008;28;20030;-67
2023/09/12 04:34:49;;;;;;;10.70;8.30;;;;;;;17.44;100.00;99734.66;5109800;28;20111;-66
2023/09/12 04:37:14;;;;;;;10.80;7.82;;;;;;;17.43;100.00;99749.16;5109552;28;20036;-67
2023/09/12 04:39:40;;;;;;;11.63;7.97;;;;;;;17.51;100.00;99754.22;5108300;28;20127;-66
2023/09/12 04:42:05;;;;;;;11.23;8.18;;;;;;;17.52;100.00;99749.66;5107810;28;20032;-66
2023/09/12 04:44:39;;;;;;;10.30;7.97;;;;;;;17.55;100.00;99754.59;5091145;28;20032;-66
2023/09/12 04:47:05;;;;;;;10.95;7.47;;;;;;;17.53;100.00;99751.28;5107955;28;20032;-67
2023/09/12 04:49:31;;;;;;;12.95;9.30;;;;;;;17.64;100.00;99758.56;5108173;28;20036;-67
2023/09/12 04:51:56;;;;;;;16.67;11.32;;;;;;;17.62;100.00;99750.75;5107806;28;20436;-66
2023/09/12 04:54:22;;;;;;;28.38;19.90;;;;;;;17.67;100.00;99758.13;5107948;28;20397;-66
2023/09/12 04:56:47;;;;;;;10.05;7.75;;;;;;;17.70;100.00;99762.22;5109069;28;20035;-67
2023/09/12 04:59:13;;;;;;;17.00;10.05;;;;;;;17.69;100.00;99755.19;5107893;28;20135;-67
2023/09/12 05:01:38;;;;;;;17.85;13.07;;;;;;;17.69;100.00;99756.03;5107657;28;20047;-66
2023/09/12 05:04:04;;;;;;;14.25;10.52;;;;;;;17.78;100.00;99754.66;5108887;28;20051;-67
2023/09/12 05:06:29;;;;;;;14.20;9.23;;;;;;;17.71;100.00;99751.25;5108888;28;20061;-66
2023/09/12 05:08:55;;;;;;;13.35;9.43;;;;;;;17.70;100.00;99757.66;5107669;28;20038;-66
2023/09/12 05:11:23;;;;;;;14.90;8.88;;;;;;;17.69;100.00;99765.97;5107599;28;20490;-66
2023/09/12 05:13:49;;;;;;;12.75;8.98;;;;;;;17.71;100.00;99772.78;5107421;28;20036;-67
2023/09/12 05:16:14;;;;;;;11.30;7.95;;;;;;;17.68;100.00;99775.09;5107481;28;20062;-66
2023/09/12 05:18:40;;;;;;;11.27;8.27;;;;;;;17.68;100.00;99777.81;5107392;28;20043;-67
2023/09/12 05:21:05;;;;;;;14.85;8.88;;;;;;;17.66;100.00;99769.13;5107177;28;20047;-67
2023/09/12 05:23:31;;;;;;;12.95;8.88;;;;;;;17.64;100.00;99775.56;5108572;28;20401;-67
2023/09/12 05:25:56;;;;;;;14.18;9.20;;;;;;;17.70;100.00;99781.06;5107190;28;20036;-67
2023/09/12 05:28:22;;;;;;;11.90;8.60;;;;;;;17.72;100.00;99776.31;5107303;28;20036;-66
2023/09/12 05:30:49;;;;;;;14.48;8.55;;;;;;;17.72;100.00;99782.50;5107331;28;20020;-67
2023/09/12 05:33:16;;;;;;;12.43;8.65;;;;;;;17.72;100.00;99773.59;5097210;28;20508;-67
2023/09/12 05:35:41;;;;;;;12.40;8.25;;;;;;;17.69;100.00;99774.06;5093683;28;20024;-66
2023/09/12 05:38:07;;;;;;;9.35;7.75;;;;;;;17.70;100.00;99783.78;5076746;28;20067;-66
2023/09/12 05:40:33;;;;;;;12.70;8.15;;;;;;;17.59;100.00;99783.50;5093474;28;20127;-65
2023/09/12 05:42:59;;;;;;;11.15;7.70;;;;;;;17.58;100.00;99789.94;5093266;28;20036;-66
2023/09/12 05:45:24;;;;;;;12.57;8.52;;;;;;;17.58;100.00;99784.56;5094693;28;20043;-66
2023/09/12 05:47:50;;;;;;;9.70;7.50;;;;;;;17.56;100.00;99783.97;5093327;28;20459;-66
2023/09/12 05:50:16;;;;;;;10.23;7.20;;;;;;;17.53;100.00;99795.19;5093316;28;20479;-66
2023/09/12 05:52:42;;;;;;;9.70;7.35;;;;;;;17.51;100.00;99796.47;5094317;28;20051;-66
2023/09/12 05:55:09;;;;;;;10.50;8.00;;;;;;;17.50;100.00;99784.06;5093123;28;20515;-66
2023/09/12 05:57:35;;;;;;;11.45;7.90;;;;;;;17.52;100.00;99780.09;5094470;28;20178;-67
2023/09/12 06:00:00;;;;;;;10.27;7.82;;;;;;;17.57;100.00;99782.91;5093162;28;20032;-66
2023/09/12 06:02:27;;;;;;;10.32;7.55;;;;;;;17.56;100.00;99783.16;5092900;28;20127;-66
2023/09/12 06:04:52;;;;;;;10.43;7.47;;;;;;;17.59;100.00;99783.50;5094289;28;20040;-65
2023/09/12 06:07:18;;;;;;;9.95;7.13;;;;;;;17.58;100.00;99781.03;5094219;28;20042;-65
2023/09/12 06:09:43;;;;;;;10.18;7.93;;;;;;;17.59;100.00;99775.41;5094192;28;20230;-65
2023/09/12 06:12:08;;;;;;;12.27;8.60;;;;;;;17.63;100.00;99779.31;5093942;28;20128;-65
2023/09/12 06:14:34;;;;;;;10.25;7.70;;;;;;;17.56;100.00;99773.19;5094177;28;20500;-66
2023/09/12 06:16:59;;;;;;;10.80;8.57;;;;;;;17.62;100.00;99777.66;5094076;28;20097;-66
2023/09/12 06:19:25;;;;;;;12.32;8.20;;;;;;;17.68;100.00;99781.31;5094097;28;20094;-66
2023/09/12 06:21:50;;;;;;;15.70;8.70;;;;;;;17.78;100.00;99797.75;5093819;28;20032;-66
2023/09/12 06:24:21;;;;;;;10.35;7.88;;;;;;;17.83;100.00;99802.44;5093779;28;20448;-66
2023/09/12 06:26:47;;;;;;;11.73;7.60;;;;;;;17.90;100.00;99801.28;5093840;28;20543;-66
2023/09/12 06:29:13;;;;;;;13.90;8.23;;;;;;;17.99;100.00;99799.06;5093894;28;20047;-66
2023/09/12 06:31:41;;;;;;;12.95;8.98;;;;;;;18.07;100.00;99806.84;5090446;28;20012;-66
2023/09/12 06:34:07;;;;;;;11.05;8.63;;;;;;;18.13;100.00;99805.09;5093361;28;20489;-66
2023/09/12 06:36:32;;;;;;;11.45;8.23;;;;;;;18.21;100.00;99806.59;5093699;28;20063;-66
2023/09/12 06:38:59;;;;;;;16.23;9.88;;;;;;;18.28;100.00;99801.91;5092420;28;20495;-66
2023/09/12 06:41:26;;;;;;;13.45;8.10;;;;;;;18.35;100.00;99799.94;5093348;28;20044;-66
2023/09/12 06:43:51;;;;;;;12.55;8.35;;;;;;;18.41;100.00;99799.81;5092622;28;20031;-66
2023/09/12 06:46:17;;;;;;;13.98;8.35;;;;;;;18.49;100.00;99805.91;5093246;28;20483;-66
2023/09/12 06:48:46;;;;;;;12.35;9.40;;;;;;;18.60;100.00;99808.59;5093564;28;20036;-66
2023/09/12 06:51:12;;;;;;;12.70;9.93;;;;;;;18.70;100.00;99810.72;5093548;28;20028;-66
2023/09/12 06:53:38;;;;;;;16.23;8.45;;;;;;;18.82;100.00;99805.28;5093229;28;20376;-66
2023/09/12 06:56:04;;;;;;;13.73;8.40;;;;;;;18.89;100.00;99805.97;5093287;28;20028;-66
2023/09/12 06:58:30;;;;;;;12.38;8.73;;;;;;;19.01;100.00;99814.06;5092050;28;20122;-66
2023/09/12 07:00:55;;;;;;;11.20;8.45;;;;;;;19.08;100.00;99817.44;5093233;28;20119;-66
2023/09/12 07:03:21;;;;;;;11.43;8.93;;;;;;;19.19;100.00;99822.81;5093116;28;20158;-66
2023/09/12 07:05:46;;;;;;;13.55;8.57;;;;;;;19.29;100.00;99821.34;5093209;28;20051;-66
2023/09/12 07:08:12;;;;;;;13.32;8.82;;;;;;;19.37;100.00;99821.00;5093164;28;20043;-66
2023/09/12 07:10:45;;;;;;;14.05;8.85;;;;;;;19.44;100.00;99810.88;5093153;28;20039;-66
2023/09/12 07:13:10;;;;;;;12.40;8.77;;;;;;;19.50;100.00;99815.31;5092973;28;20063;-65
2023/09/12 07:15:36;;;;;;;11.18;8.25;;;;;;;19.58;100.00;99830.31;5092949;28;20493;-66
2023/09/12 07:18:02;;;;;;;15.38;8.68;;;;;;;19.64;100.00;99822.06;5092929;28;20040;-66
2023/09/12 07:20:27;;;;;;;17.75;10.60;;;;;;;19.76;100.00;99814.72;5092800;28;20130;-66
2023/09/12 07:22:53;;;;;;;16.73;9.00;;;;;;;19.83;100.00;99821.84;5092782;28;20123;-66
2023/09/12 07:25:20;;;;;;;11.50;7.60;;;;;;;19.89;100.00;99818.19;5092682;28;20055;-66
2023/09/12 07:27:46;;;;;;;;;;;;;;;19.96;100.00;99818.84;5093277;28;20043;-65
2023/09/12 07:30:11;;;;;;;13.23;9.07;;;;;;;20.09;100.00;99823.09;5092784;28;20290;-66
2023/09/12 07:32:36;;;;;;;15.00;8.73;;;;;;;20.18;100.00;99816.22;5092522;28;20505;-65
2023/09/12 07:35:02;;;;;;;12.80;8.60;;;;;;;20.23;100.00;99817.13;5092769;28;20066;-67
2023/09/12 07:37:28;;;;;;;11.60;8.23;;;;;;;20.32;100.00;99818.31;5092545;28;20503;-65
2023/09/12 07:39:53;;;;;;;11.93;9.10;;;;;;;20.47;100.00;99817.75;5092617;28;20036;-65
2023/09/12 07:42:22;;;;;;;12.20;8.85;;;;;;;20.62;100.00;99816.34;5092372;28;20040;-65
2023/09/12 07:44:48;;;;;;;11.25;8.23;;;;;;;20.77;100.00;99820.06;5092482;28;20036;-54
2023/09/12 07:47:14;;;;;;;13.07;8.25;;;;;;;20.92;100.00;99814.03;5092450;28;20403;-57
2023/09/12 07:49:40;;;;;;;11.27;8.32;;;;;;;21.12;98.98;99827.00;5092542;28;20118;-56
2023/09/12 07:52:05;;;;;;;13.48;8.57;;;;;;;21.19;97.05;99819.53;5092022;28;20210;-55
2023/09/12 07:54:31;;;;;;;9.60;7.50;;;;;;;21.30;97.43;99824.00;5092387;28;20044;-54
2023/09/12 07:56:56;;;;;;;11.00;7.90;;;;;;;21.40;96.56;99824.13;5092089;28;20127;-57
2023/09/12 07:59:22;;;;;;;11.32;8.02;;;;;;;21.51;95.97;99826.94;5091990;28;20055;-57
2023/09/12 08:01:47;;;;;;;9.45;7.55;;;;;;;21.62;95.06;99836.81;5092085;28;20031;-54
2023/09/12 08:04:14;;;;;;;12.95;7.63;;;;;;;21.75;95.84;99830.16;5091938;28;20089;-54
2023/09/12 08:06:41;;;;;;;11.00;7.40;;;;;;;21.78;96.00;99824.22;5092087;28;20489;-53
2023/09/12 08:09:07;;;;;;;13.07;7.37;;;;;;;21.83;94.85;99830.50;5092145;28;20062;-54
2023/09/12 08:11:32;;;;;;;9.05;7.22;;;;;;;21.89;96.02;99829.47;5092078;28;20482;-53
2023/09/12 08:13:57;;;;;;;15.13;8.50;;;;;;;21.99;94.26;99831.47;5091913;28;20036;-55
2023/09/12 08:16:23;;;;;;;12.18;7.88;;;;;;;22.14;92.54;99841.66;5091935;28;20046;-54
2023/09/12 08:18:48;;;;;;;8.80;7.28;;;;;;;22.26;92.43;99845.00;5092084;28;20093;-57
2023/09/12 08:21:14;;;;;;;8.18;7.20;;;;;;;22.36;91.30;99844.25;5091915;28;20036;-57
2023/09/12 08:23:39;;;;;;;9.82;6.57;;;;;;;22.46;90.49;99828.88;5091757;28;20410;-54
2023/09/12 08:26:05;;;;;;;11.20;7.20;;;;;;;22.65;89.23;99833.88;5091993;28;20032;-57
2023/09/12 08:28:30;;;;;;;10.32;7.30;;;;;;;22.66;89.73;99835.50;5091925;28;20494;-52
2023/09/12 08:30:55;;;;;;;9.75;7.00;;;;;;;22.77;89.68;99837.22;5091839;28;20420;-56
2023/09/12 08:33:21;;;;;;;8.13;6.82;;;;;;;22.91;87.71;99832.97;5091632;28;20055;-57
2023/09/12 08:35:46;;;;;;;12.80;7.65;;;;;;;23.02;86.47;99840.09;5091734;28;20044;-54
2023/09/12 08:38:12;;;;;;;11.18;7.20;;;;;;;23.08;85.75;99840.09;5091819;28;20119;-55
2023/09/12 08:40:37;;;;;;;10.45;7.07;;;;;;;23.14;84.75;99839.84;5091856;28;20036;-55
2023/09/12 08:43:03;;;;;;;10.80;6.85;;;;;;;23.15;84.90;99846.13;5091586;28;20048;-56
2023/09/12 08:45:29;;;;;;;9.90;6.90;;;;;;;23.19;85.69;99841.78;5091782;28;20043;-53
2023/09/12 08:47:58;;;;;;;11.18;6.40;;;;;;;23.20;85.08;99846.94;5091840;28;20046;-56
2023/09/12 08:50:24;;;;;;;8.85;6.75;;;;;;;23.23;87.06;99845.59;5091610;28;20043;-57
2023/09/12 08:52:50;;;;;;;8.68;6.88;;;;;;;23.31;85.07;99842.38;5091499;28;20032;-54
2023/09/12 08:55:16;;;;;;;10.02;6.28;;;;;;;23.38;85.64;99848.34;5091515;28;20101;-53
2023/09/12 08:57:43;;;;;;;11.52;6.97;;;;;;;23.49;85.17;99847.31;5091662;28;20040;-57
2023/09/12 09:00:14;;;;;;;8.93;7.85;;;;;;;23.50;84.83;99843.50;5091652;28;20432;-55
2023/09/12 09:02:40;;;;;;;10.48;7.95;;;;;;;23.66;83.45;99838.94;5091343;28;20505;-56
2023/09/12 09:05:08;;;;;;;8.95;6.28;;;;;;;23.76;82.78;99855.28;5091578;28;20040;-55
2023/09/12 09:07:41;;;;;;;9.90;6.32;;;;;;;23.96;81.71;99842.78;5092373;28;20031;-56
2023/09/12 09:10:09;;;;;;;12.27;7.13;;;;;;;24.13;79.59;99837.09;5095522;28;20044;-55
2023/09/12 09:12:35;;;;;;;11.00;6.70;;;;;;;24.41;79.25;99844.72;5095050;28;20487;-56
2023/09/12 09:15:27;;;;;;;8.75;6.72;;;;;;;24.57;77.39;99846.31;5095474;28;20062;-53
2023/09/12 09:17:53;;;;;;;10.20;6.68;;;;;;;24.71;81.29;99840.28;5095228;28;20506;-53
2023/09/12 09:20:30;;;;;;;12.18;6.88;;;;;;;24.87;77.28;99836.44;5095097;28;20054;-57
2023/09/12 09:22:57;;;;;;;9.18;6.78;;;;;;;24.90;77.52;99831.25;5095127;28;20058;-54
2023/09/12 09:25:23;;;;;;;8.20;6.38;;;;;;;25.10;77.48;99835.88;5095291;28;20042;-58
2023/09/12 09:27:48;;;;;;;9.65;6.32;;;;;;;25.29;76.78;99829.75;5095076;28;20039;-55
2023/09/12 09:30:14;;;;;;;10.52;7.15;;;;;;;25.43;72.41;99825.34;5094987;28;20051;-56
2023/09/12 09:32:39;;;;;;;8.15;6.30;;;;;;;25.47;76.16;99831.03;5094661;28;20120;-54
2023/09/12 09:35:06;;;;;;;8.13;6.45;;;;;;;25.34;75.91;99824.28;5094970;28;20122;-57
2023/09/12 09:37:31;;;;;;;10.02;6.57;;;;;;;25.33;75.26;99822.66;5094971;28;20442;-54
2023/09/12 09:39:58;;;;;;;10.30;6.85;;;;;;;25.30;73.00;99813.16;5094831;28;20036;-54
2023/09/12 09:42:23;;;;;;;8.73;6.57;;;;;;;25.42;72.81;99821.78;5094454;28;20043;-53
2023/09/12 09:44:49;;;;;;;8.45;6.30;;;;;;;25.61;73.95;99815.66;5094705;28;20040;-59
2023/09/12 09:47:15;;;;;;;9.27;6.75;;;;;;;25.85;73.79;99824.00;5094684;28;20036;-55
2023/09/12 09:49:40;;;;;;;9.95;6.00;;;;;;;26.09;72.10;99813.19;5094743;28;20043;-57
2023/09/12 09:52:06;;;;;;;7.93;5.78;;;;;;;26.24;73.21;99815.75;5094264;28;20115;-54
2023/09/12 09:54:32;;;;;;;8.55;6.03;;;;;;;26.41;67.55;99810.72;5094655;28;20406;-56
2023/09/12 09:56:57;;;;;;;7.60;5.97;;;;;;;26.81;67.07;99818.75;5094599;28;20047;-57
2023/09/12 09:59:27;;;;;;;7.65;5.85;;;;;;;27.14;65.04;99814.28;5094628;28;20044;-55
2023/09/12 10:01:57;;;;;;;7.47;5.82;;;;;;;27.41;60.59;99824.59;5094456;28;20058;-58
2023/09/12 10:04:26;;;;;;;8.10;6.13;;;;;;;27.92;61.62;99816.47;5094335;28;20043;-55
2023/09/12 10:06:55;;;;;;;6.03;5.43;;;;;;;28.12;59.08;99823.53;5094357;28;20024;-57
2023/09/12 10:09:23;;;;;;;9.65;5.80;;;;;;;28.35;61.54;99819.84;5094271;28;20127;-55
2023/09/12 10:11:51;;;;;;;7.75;5.90;;;;;;;28.57;58.26;99819.19;5094220;28;20044;-54
2023/09/12 10:14:19;;;;;;;7.75;5.50;;;;;;;28.69;57.00;99815.94;5094223;28;20032;-54
2023/09/12 10:16:47;;;;;;;10.10;5.72;;;;;;;28.87;56.60;99815.00;5094178;28;20043;-59
2023/09/12 10:19:21;;;;;;;7.63;5.78;;;;;;;29.11;56.01;99816.75;5094058;28;20079;-58
2023/09/12 10:22:06;;;;;;;7.25;5.40;;;;;;;29.06;55.59;99811.38;5093965;28;20407;-59
2023/09/12 10:24:34;;;;;;;6.50;5.90;;;;;;;28.88;56.02;99811.16;5094131;28;20066;-57
2023/09/12 10:27:01;;;;;;;6.63;5.97;;;;;;;29.23;51.88;99803.34;5093886;28;20032;-57
2023/09/12 10:29:28;;;;;;;6.93;5.53;;;;;;;29.71;50.69;99803.63;5092759;28;20122;-55
2023/09/12 10:31:53;;;;;;;6.97;6.27;;;;;;;30.00;49.93;99794.97;5093831;28;20085;-58
2023/09/12 10:34:20;;;;;;;9.93;6.47;;;;;;;30.32;50.20;99787.59;5093590;28;20563;-58
2023/09/12 10:36:47;;;;;;;6.00;5.32;;;;;;;30.76;48.68;99792.16;5093685;28;20044;-59
2023/09/12 10:39:14;;;;;;;9.10;5.13;;;;;;;30.96;46.54;99789.94;5093669;28;20036;-59
2023/09/12 10:41:40;;;;;;;8.20;5.40;;;;;;;30.88;46.23;99780.56;5093610;28;20031;-58
2023/09/12 10:44:16;;;;;;;6.20;5.27;;;;;;;31.01;45.35;99787.84;5093442;28;20097;-57
2023/09/12 10:46:43;;;;;;;7.25;5.10;;;;;;;30.87;45.32;99792.69;5093686;28;20055;-59
2023/09/12 10:49:10;;;;;;;;;;;;;;;30.90;44.84;99780.22;5093891;28;20036;-57
2023/09/12 10:51:46;;;;;;;7.30;5.68;;;;;;;30.82;45.98;99773.56;5093343;28;19920;-58
2023/09/12 10:54:22;;;;;;;7.43;5.53;;;;;;;31.26;44.39;99774.50;5093278;28;20136;-59
2023/09/12 10:57:03;;;;;;;8.10;5.47;;;;;;;31.95;44.41;99776.44;5093434;28;20040;-55
2023/09/12 10:59:31;;;;;;;7.15;5.53;;;;;;;32.31;44.19;99778.78;5093427;28;20031;-56
2023/09/12 11:02:38;;;;;;;8.57;5.80;;;;;;;32.96;42.99;99779.50;5093061;28;20039;-54
2023/09/12 11:05:06;;;;;;;6.70;5.13;;;;;;;33.67;40.17;99774.78;5093279;28;20087;-55
2023/09/12 11:07:33;;;;;;;7.40;5.22;;;;;;;34.09;39.66;99771.13;5093274;28;20032;-57
2023/09/12 11:10:31;;;;;;;;;;;;;;;34.19;41.07;99771.50;5093561;28;20456;-57
2023/09/12 11:12:56;;;;;;;7.53;5.93;;;;;;;34.83;38.11;99764.56;5088337;28;19957;-57
2023/09/12 11:15:24;;;;;;;5.97;5.03;;;;;;;35.21;37.09;99753.09;5093013;28;20492;-57
2023/09/12 11:18:00;;;;;;;7.63;5.35;;;;;;;34.85;38.47;99759.47;5093005;28;20035;-56
2023/09/12 11:20:25;;;;;;;;;;;;;;;34.57;37.58;99753.84;5093238;28;20043;-53
2023/09/12 11:22:52;;;;;;;7.13;5.00;;;;;;;34.70;37.63;99752.69;5092823;28;19916;-57
2023/09/12 11:25:26;;;;;;;5.35;4.72;;;;;;;35.26;37.23;99749.28;5092856;28;20032;-54
2023/09/12 11:27:52;;;;;;;6.45;5.30;;;;;;;35.65;35.38;99755.16;5092818;28;20040;-57
2023/09/12 11:30:21;;;;;;;6.47;5.30;;;;;;;35.73;36.29;99745.88;5092330;28;20016;-58
2023/09/12 11:32:50;;;;;;;6.13;4.82;;;;;;;35.33;36.66;99747.50;5092370;28;20483;-56
2023/09/12 11:35:22;;;;;;;6.47;4.95;;;;;;;36.32;35.22;99740.38;5092573;28;20110;-56
2023/09/12 11:37:53;;;;;;;5.82;5.07;;;;;;;36.85;34.90;99740.88;5092652;28;20122;-58
2023/09/12 11:40:45;;;;;;;6.63;5.18;;;;;;;37.19;33.93;99738.47;5092649;28;20051;-57
2023/09/12 11:43:27;;;;;;;5.22;4.72;;;;;;;36.81;32.12;99739.16;5091048;28;20044;-58
2023/09/12 11:45:54;;;;;;;6.38;4.82;;;;;;;36.88;31.98;99733.81;5092543;28;20042;-57
2023/09/12 11:48:20;;;;;;;8.00;5.07;;;;;;;36.85;32.84;99735.31;5092511;28;20059;-57
2023/09/12 11:50:56;;;;;;;5.25;4.70;;;;;;;36.85;32.09;99729.75;5092402;28;20109;-60
2023/09/12 11:53:29;;;;;;;7.70;4.72;;;;;;;37.18;31.90;99740.44;5092125;28;20129;-58
2023/09/12 11:55:58;;;;;;;5.82;4.55;;;;;;;37.51;31.33;99735.56;5092372;28;20086;-58
2023/09/12 11:58:24;;;;;;;6.15;4.22;;;;;;;37.46;30.04;99736.66;5092373;28;20590;-60
2023/09/12 12:00:52;;;;;;;6.20;4.03;;;;;;;37.84;29.67;99733.06;5092360;28;20114;-57
2023/09/12 12:03:21;;;;;;;7.22;4.40;;;;;;;37.59;29.45;99740.09;5091946;28;20466;-57
2023/09/12 12:05:47;;;;;;;6.32;4.53;;;;;;;37.17;29.26;99735.25;5092106;28;20043;-60
2023/09/12 12:08:14;;;;;;;5.30;3.97;;;;;;;37.46;29.47;99734.69;5092112;28;20123;-59
2023/09/12 12:10:40;;;;;;;5.88;4.43;;;;;;;37.24;29.80;99729.03;5092009;28;20040;-57
2023/09/12 12:13:11;;;;;;;5.03;4.15;;;;;;;37.64;28.06;99737.81;5092090;28;20387;-58
2023/09/12 12:15:36;;;;;;;4.78;4.07;;;;;;;37.58;28.13;99730.16;5091953;28;20036;-58
2023/09/12 12:18:02;;;;;;;8.50;4.70;;;;;;;37.83;28.61;99739.00;5092024;28;20119;-58
2023/09/12 12:20:29;;;;;;;5.28;4.43;;;;;;;37.74;29.31;99730.84;5095331;28;20076;-58
2023/09/12 12:22:56;;;;;;;5.32;4.45;;;;;;;38.05;28.81;99723.50;5110404;28;20044;-58
2023/09/12 12:25:22;;;;;;;5.05;3.85;;;;;;;38.27;27.92;99728.28;5112420;28;20044;-58
2023/09/12 12:27:47;;;;;;;5.28;4.20;;;;;;;38.47;26.72;99724.25;5112347;28;20413;-57
2023/09/12 12:30:13;;;;;;;5.72;4.13;;;;;;;38.27;26.33;99723.50;5112195;28;20105;-58
2023/09/12 12:32:46;;;;;;;4.95;4.00;;;;;;;38.92;26.70;99711.41;5112027;28;20035;-59
2023/09/12 12:35:22;;;;;;;6.22;3.95;;;;;;;39.07;27.11;99721.56;5112107;28;20036;-58
2023/09/12 12:37:49;;;;;;;5.47;3.72;;;;;;;39.32;26.95;99715.50;5112249;28;20044;-59
2023/09/12 12:40:16;;;;;;;5.88;4.20;;;;;;;39.04;27.70;99716.75;5112276;28;20039;-58
2023/09/12 12:42:43;;;;;;;5.97;4.28;;;;;;;39.68;26.82;99711.19;5113093;28;20024;-59
2023/09/12 12:45:14;;;;;;;5.30;3.97;;;;;;;39.68;26.64;99707.59;5116232;28;20027;-59
2023/09/12 12:47:40;;;;;;;5.25;4.32;;;;;;;39.67;25.87;99700.44;5116195;28;20119;-60
2023/09/12 12:50:12;;;;;;;7.45;4.38;;;;;;;38.95;26.30;99699.53;5116530;28;20435;-57
2023/09/12 12:52:38;;;;;;;6.82;4.68;;;;;;;38.79;27.22;99683.00;5115735;28;20028;-59
2023/09/12 12:55:11;;;;;;;4.93;4.53;;;;;;;39.47;27.06;99692.22;5116205;28;20027;-57
2023/09/12 12:57:38;;;;;;;4.68;4.25;;;;;;;39.63;25.92;99688.44;5116129;28;20031;-53
2023/09/12 13:00:10;;;;;;;4.38;3.85;;;;;;;39.76;26.47;99696.13;5116042;28;20502;-59
2023/09/12 13:02:37;;;;;;;6.63;4.10;;;;;;;39.44;25.97;99687.41;5115523;28;20538;-59
2023/09/12 13:05:03;;;;;;;6.07;4.15;;;;;;;39.20;26.26;99679.59;5115969;28;20023;-59
2023/09/12 13:07:28;;;;;;;6.75;4.40;;;;;;;39.03;26.67;99684.53;5115823;28;20447;-58
2023/09/12 13:09:54;;;;;;;6.53;4.23;;;;;;;39.06;27.01;99675.41;5115755;28;20039;-58
2023/09/12 13:12:19;;;;;;;5.20;4.30;;;;;;;39.08;27.00;99669.47;5114408;28;20496;-58
2023/09/12 13:14:44;;;;;;;5.05;4.10;;;;;;;38.75;26.91;99678.59;5095243;28;20040;-59
2023/09/12 13:17:10;;;;;;;6.40;4.63;;;;;;;38.13;27.51;99686.31;5095240;28;20040;-59
2023/09/12 13:19:35;;;;;;;6.78;4.10;;;;;;;38.15;27.56;99675.63;5095216;28;20123;-59
2023/09/12 13:22:01;;;;;;;7.83;4.30;;;;;;;38.22;27.37;99668.22;5094924;28;20123;-57
2023/09/12 13:24:26;;;;;;;6.67;4.27;;;;;;;38.27;27.19;99665.13;5095080;28;20143;-58
2023/09/12 13:26:53;;;;;;;4.83;4.17;;;;;;;38.68;26.36;99664.53;5095054;28;20066;-58
2023/09/12 13:29:19;;;;;;;6.68;3.80;;;;;;;38.18;26.68;99666.53;5094995;28;20036;-58
2023/09/12 13:31:45;;;;;;;4.60;4.20;;;;;;;37.62;27.37;99661.56;5094815;28;20406;-58
2023/09/12 13:34:10;;;;;;;5.07;4.47;;;;;;;37.36;27.66;99653.94;5094740;28;20039;-58
2023/09/12 13:36:36;;;;;;;6.40;4.33;;;;;;;37.28;29.08;99650.19;5087860;28;20534;-58
2023/09/12 13:39:02;;;;;;;4.73;4.17;;;;;;;37.57;28.92;99648.00;5084290;28;20363;-57
2023/09/12 13:41:27;;;;;;;;;;;;;;;37.73;28.71;99643.13;5084033;28;20052;-57
2023/09/12 13:43:53;;;;;;;6.22;4.28;;;;;;;37.41;28.43;99642.53;5083611;28;19955;-58
2023/09/12 13:46:18;;;;;;;8.00;4.13;;;;;;;37.56;28.54;99640.81;5083526;28;20059;-57
2023/09/12 13:48:43;;;;;;;4.30;3.90;;;;;;;37.88;28.23;99641.41;5083968;28;20039;-56
2023/09/12 13:51:09;;;;;;;4.57;3.60;;;;;;;37.69;27.63;99643.06;5085018;28;20452;-57
2023/09/12 13:53:34;;;;;;;6.80;3.97;;;;;;;37.85;27.92;99636.59;5081641;28;20028;-59
2023/09/12 13:56:01;;;;;;;5.50;4.10;;;;;;;37.18;28.27;99634.16;5083560;28;20063;-58
2023/09/12 13:58:26;;;;;;;4.57;3.38;;;;;;;36.78;29.76;99626.97;5083302;28;20068;-57
2023/09/12 14:00:52;;;;;;;5.90;4.27;;;;;;;36.34;30.09;99626.34;5084860;28;20071;-58
2023/09/12 14:03:17;;;;;;;5.50;3.30;;;;;;;35.95;30.95;99620.66;5087224;28;20040;-58
2023/09/12 14:05:43;;;;;;;5.23;4.53;;;;;;;35.57;30.15;99622.03;5094291;28;20043;-56
2023/09/12 14:08:08;;;;;;;4.40;3.60;;;;;;;35.14;30.59;99620.03;5094374;28;20111;-57
2023/09/12 14:10:34;;;;;;;5.93;4.07;;;;;;;35.10;30.88;99616.38;5094208;28;20297;-57
2023/09/12 14:12:59;;;;;;;6.27;4.20;;;;;;;34.66;31.73;99627.31;5094020;28;20081;-58
2023/09/12 14:15:25;;;;;;;8.87;4.60;;;;;;;34.32;31.62;99614.00;5094057;28;20043;-58
2023/09/12 14:17:51;;;;;;;7.50;4.32;;;;;;;34.35;32.88;99618.81;5094083;28;20487;-57
2023/09/12 14:20:16;;;;;;;6.20;4.80;;;;;;;34.17;32.75;99612.72;5094103;28;20046;-58
2023/09/12 14:22:43;;;;;;;5.00;4.23;;;;;;;33.92;31.70;99612.75;5093494;28;20027;-57
2023/09/12 14:25:14;;;;;;;5.50;4.05;;;;;;;33.90;30.09;99612.22;5093893;28;20123;-54
2023/09/12 14:27:43;;;;;;;5.88;4.25;;;;;;;33.62;30.79;99609.31;5093943;28;20032;-57
2023/09/12 14:30:10;;;;;;;5.43;4.03;;;;;;;33.54;31.84;99610.25;5093895;28;20044;-54
2023/09/12 14:32:35;;;;;;;6.18;4.30;;;;;;;33.52;32.29;99607.03;5093407;28;20044;-57
2023/09/12 14:35:01;;;;;;;4.87;4.40;;;;;;;33.22;33.04;99623.69;5093827;28;20491;-58
2023/09/12 14:37:27;;;;;;;8.27;4.03;;;;;;;33.18;30.92;99625.50;5093768;28;20039;-56
2023/09/12 14:39:55;;;;;;;5.03;4.10;;;;;;;33.15;31.33;99625.38;5093741;28;20036;-56
2023/09/12 14:42:21;;;;;;;5.03;4.15;;;;;;;32.98;31.04;99623.56;5093415;28;20066;-56
2023/09/12 14:44:46;;;;;;;6.60;4.40;;;;;;;32.77;31.14;99614.47;5093608;28;20475;-57
2023/09/12 14:47:11;;;;;;;7.83;4.50;;;;;;;32.78;31.60;99613.31;5093500;28;20040;-57
2023/09/12 14:49:37;;;;;;;6.30;4.07;;;;;;;32.64;31.93;99617.16;5093555;28;20040;-57
2023/09/12 14:52:02;;;;;;;5.43;4.07;;;;;;;32.60;31.24;99618.16;5093129;28;20028;-56
2023/09/12 14:54:28;;;;;;;6.03;3.50;;;;;;;32.60;30.53;99601.63;5093433;28;20503;-57
2023/09/12 14:56:53;;;;;;;5.37;3.80;;;;;;;32.59;30.64;99606.31;5093332;28;20043;-57
2023/09/12 14:59:19;;;;;;;4.83;4.40;;;;;;;32.48;30.91;99602.38;5093303;28;20426;-54
2023/09/12 15:01:44;;;;;;;5.87;3.60;;;;;;;32.47;30.85;99603.50;5093154;28;20035;-54
2023/09/12 15:04:11;;;;;;;4.83;3.50;;;;;;;32.43;31.71;99599.81;5093058;28;20406;-58
2023/09/12 15:06:36;;;;;;;;;;;;;;;32.32;29.88;99593.03;5092796;28;20452;-56
2023/09/12 15:09:02;;;;;;;4.73;4.00;;;;;;;32.26;29.33;99591.59;5093159;28;19992;-57
2023/09/12 15:11:27;;;;;;;6.70;4.30;;;;;;;32.29;30.62;99588.19;5093000;28;20126;-58
2023/09/12 15:13:53;;;;;;;5.50;4.23;;;;;;;32.22;29.62;99585.97;5087157;28;20043;-58
2023/09/12 15:16:18;;;;;;;5.90;3.97;;;;;;;32.23;30.25;99586.78;5078202;28;20040;-57
2023/09/12 15:18:43;;;;;;;4.17;3.70;;;;;;;32.25;30.42;99585.28;5078053;28;20070;-56
2023/09/12 15:21:09;;;;;;;7.17;3.73;;;;;;;32.16;29.31;99572.72;5072704;28;20024;-57
2023/09/12 15:23:34;;;;;;;5.17;3.50;;;;;;;32.16;29.31;99578.25;5072402;28;20123;-55
2023/09/12 15:26:00;;;;;;;4.37;3.70;;;;;;;32.13;29.46;99572.22;5072461;28;20128;-55
2023/09/12 15:28:25;;;;;;;6.40;4.43;;;;;;;32.04;30.26;99574.25;5072571;28;20064;-57
2023/09/12 15:30:51;;;;;;;5.33;3.70;;;;;;;32.03;30.04;99563.56;5072634;28;20484;-54
2023/09/12 15:33:16;;;;;;;7.00;4.33;;;;;;;31.99;29.95;99566.16;5072206;28;20036;-58
2023/09/12 15:35:42;;;;;;;5.00;3.93;;;;;;;31.94;30.65;99560.84;5072442;28;20041;-57
2023/09/12 15:38:07;;;;;;;5.03;3.90;;;;;;;31.93;31.48;99561.97;5072401;28;20045;-54
2023/09/12 15:40:33;;;;;;;4.03;3.60;;;;;;;31.88;30.98;99562.97;5072349;28;20037;-56
2023/09/12 15:42:59;;;;;;;5.55;3.75;;;;;;;31.82;32.02;99560.72;5072009;28;20403;-55
2023/09/12 15:45:24;;;;;;;5.27;4.00;;;;;;;31.80;31.83;99561.06;5072216;28;20033;-57
2023/09/12 15:47:49;;;;;;;6.07;3.93;;;;;;;31.77;31.50;99569.16;5072246;28;20453;-56
2023/09/12 15:50:15;;;;;;;4.03;3.47;;;;;;;31.73;30.69;99562.69;5072338;28;20460;-57